Ride Results

Jolly Lette Memorial (22-08-2015)
Ride distance: 80.0 km

Outcomes - Jolly Lette Memorial (22-08-2015)
Division No. of Entries Retired / DNE Completed Withdrawn Ineligible V/O Percentage Completed
HW 5 - 5 - - - 100.00%
MW 15 - 14 - - 1 93.33%
LW 5 - 4 - - 1 80.00%
JN 9 - 9 - - - 100.00%
Totals 34 - 32 - - 2 94.12%
Results - Jolly Lette Memorial (22-08-2015)
No. Rider Horse Place Time Leg Speeds Total
Km/Hr
H/R bpm
Heavyweight
122 Ged Nicklason Wongawol Legend 1 5:57:00 14.6, 12.4 13.45 38, 45, 58 (Avg:51)
194 Robby Walsh Free Spirit Czar 2 6:28:16 14.4, 10.7 12.36 39, 44, 55 (Avg:49)
F Danza Hardwicke Rossfields Showoff 3 (BC) 6:34:00 11.8, 12.4 12.18 28, 44, 48 (Avg:46)
82 Mark Dunn Calypso 4 7:42:00 10.8, 9.9 10.39 28, 53, 60 (Avg:56)
M Sarah Wells Shadha Nitesh 5 7:46:00 11.0, 9.6 10.30 38, 50, 58 (Avg:54)
Middleweight
38 Tony Purton Beer Street Lizzy B 1 (BC) 5:31:00 15.1, 13.8 14.50 41, 41, 50 (Avg:45)
136 Kaye Mitchell Beer Street Bluewitch 2 5:52:00 14.4, 12.9 13.64 34, 42, 43 (Avg:42)
114 Tara Nicklason Wattlelea Zaharra 3 5:57:00 14.6, 12.4 13.45 36, 47, 60 (Avg:53)
143 Pauline Goodwin Marley Hosanna 4 5:59:00 14.6, 12.3 13.37 31, 45, 43 (Avg:44)
219 Robert Crowe Highland View Moonshine 5 6:04:00 13.1, 13.1 13.19 40, 40, 51 (Avg:45)
80 Noel Lockhart Lord Stuart of Seven Oaks 6 6:06:00 13.1, 13.0 13.11 48, 48, 53 (Avg:50)
274 Flynn Miller Fine Art 6 6:06:00 13.1, 13.0 13.11 30, 42, 48 (Avg:45)
254 Deb Wyllie Castella Soldier Boy 8 6:29:00 13.1, 11.5 12.34 35, 46, 58 (Avg:52)
179 Debbie Grull Ben 9 6:34:00 12.1, 12.2 12.18 39, 34, 38 (Avg:36)
92 Blaine Astell Henley Farm Rasm 10 6:40:00 11.9, 11.9 12.00 42, 48, 51 (Avg:49)
165 Danielle Taylor Christmas Lights 11 6:40:10 11.9, 11.9 12.00 37, 45, 48 (Avg:46)
125 Brooke Brown-Cordell BBP Pocahontus 12 7:02:00 11.0, 11.7 11.37 43, 45, 54 (Avg:49)
216 David Evelyn Kalody Park Eclipse 13 7:26:00 11.9, 9.7 10.76 32, 40, 50 (Avg:45)
227 Mary Austin Cookie 14 7:46:00 11.2, 9.5 10.30 37, 46, 51 (Avg:48)
262 Andrew Miles Beau Lame L2 0:00:00 10.7, 10.0 - 39, 41, 49 (Avg:45)
Lightweight
54 Brooke McKenna Miss Mika 1 (BC) 6:04:00 13.1, 13.1 13.19 41, 48, 51 (Avg:49)
231 Andrew Matthews Shemali Saladin 2 6:04:05 13.1, 13.1 13.18 40, 55, 51 (Avg:53)
12 Anita Hutchins Shea Tarn Shades of Grey 3 6:29:00 13.1, 11.5 12.34 47, 48, 52 (Avg:50)
298 Olivia Barnard Yondover Ridge Bee 4 6:34:00 11.8, 12.4 12.18 39, 45, 43 (Avg:44)
83 Angie Clark Envios Lame L2 0:00:00 11.9, 11.9 - 53, 44, 47 (Avg:45)
Junior
190 Alice Mitchell Beer Street Takone 1 (BC) 5:58:00 14.4, 12.4 13.41 38, 43, 48 (Avg:45)
263 Ali Smith Benstock Little Miss Rosie 2 6:28:16 14.4, 10.7 12.36 48, 49, 60 (Avg:54)
127 Jaz Hutchins Red Bullet 3 6:40:14 11.3, 12.7 11.99 37, 41, 45 (Avg:43)
209 Grace Huxtable Bacardi 3 6:40:14 11.3, 12.7 11.99 41, 46, 48 (Avg:47)
129 Rehanna Williams Woodsong Zadonk 5 6:41:00 12.1, 11.8 11.97 37, 49, 57 (Avg:53)
287 David Anderson Jnr Toobee Shore 6 7:23:00 11.0, 10.6 10.84 29, 45, 49 (Avg:47)
297 Brittany Farrell Awarran Park Royal Symbol 6 7:23:00 11.0, 10.6 10.84 51, 42, 48 (Avg:45)
289 Bella Pickering Vandieman Tyra 6 7:23:00 11.0, 10.6 10.84 54, 40, 55 (Avg:47)
191 Annie Evelyn Atashys Oasis 9 7:26:00 11.9, 9.7 10.76 36, 53, 56 (Avg:54)